Dades meteomassalio
Diari Summary for Juny 29, 2017 Units:  Metric    English   Both
« Previous Day
Next Day »
Diari Semanal Mensual Anual Personalitzat
  Maxima: Minima: Mijana:
Temperatura: 25.7 °C 15.3 °C 19.9 °C
Rosada: 11.5 °C 2.2 °C 7.5 °C
Humitat: 71 % 25 % 47 %
Velocitat del vent: 46.3 km/h 0.0 km/h 21.8 km/h
Racha vent: 46.3 km/h - -
Vent:- - WNW
Pressio: 1010.0 hPa 1006.7 hPa -
Pluja: 0.0 mm    
Historical Graphs
 
 
Tabular Data for Juny 29, 2017
Time Temperature Dew Point Pressure Wind Wind Speed Wind Gust Humidity Rainfall Rate (Hourly) solar Conditions
00:00 22.1 °C 11.5 °C 1006.7 hPa WNW 25.9 km/h 25.9 km/h 51 % 0.0 mm 0.0 W/m2 CLR
00:01 22.1 °C 11.5 °C 1006.7 hPa NNW 27.8 km/h 27.8 km/h 51 % 0.0 mm 0.0 W/m2 CLR
00:06 21.9 °C 11.3 °C 1006.7 hPa NW 25.9 km/h 25.9 km/h 51 % 0.0 mm 0.0 W/m2 CLR
00:11 21.8 °C 11.2 °C 1007.0 hPa NW 25.9 km/h 25.9 km/h 51 % 0.0 mm 0.0 W/m2 CLR
00:16 21.7 °C 11.1 °C 1007.0 hPa NW 27.8 km/h 27.8 km/h 51 % 0.0 mm 0.0 W/m2 CLR
00:21 21.6 °C 11.0 °C 1007.0 hPa NNW 22.2 km/h 22.2 km/h 51 % 0.0 mm 0.0 W/m2 CLR
00:26 21.4 °C 10.8 °C 1007.3 hPa NW 24.1 km/h 24.1 km/h 51 % 0.0 mm 0.0 W/m2 CLR
00:31 21.2 °C 10.4 °C 1007.3 hPa NW 20.4 km/h 20.4 km/h 50 % 0.0 mm 0.0 W/m2 CLR
00:36 21.0 °C 10.2 °C 1007.3 hPa NNW 18.5 km/h 18.5 km/h 50 % 0.0 mm 0.0 W/m2 CLR
00:41 20.8 °C 10.3 °C 1007.3 hPa NNW 25.9 km/h 25.9 km/h 51 % 0.0 mm 0.0 W/m2 CLR
00:46 20.7 °C 9.9 °C 1007.7 hPa NNW 18.5 km/h 18.5 km/h 50 % 0.0 mm 0.0 W/m2 CLR
00:51 20.6 °C 10.1 °C 1007.7 hPa NNW 22.2 km/h 22.2 km/h 51 % 0.0 mm 0.0 W/m2 CLR
00:56 20.4 °C 9.7 °C 1007.7 hPa NNW 31.5 km/h 31.5 km/h 50 % 0.0 mm 0.0 W/m2 CLR
01:01 20.4 °C 9.9 °C 1007.7 hPa NW 25.9 km/h 25.9 km/h 51 % 0.0 mm 0.0 W/m2 CLR
01:06 20.2 °C 10.3 °C 1007.7 hPa NNW 31.5 km/h 31.5 km/h 53 % 0.0 mm 0.0 W/m2 CLR
01:11 20.1 °C 10.4 °C 1007.7 hPa NW 24.1 km/h 24.1 km/h 54 % 0.0 mm 0.0 W/m2 CLR
01:16 19.9 °C 10.3 °C 1008.0 hPa NW 25.9 km/h 25.9 km/h 54 % 0.0 mm 0.0 W/m2 CLR
01:21 19.7 °C 10.2 °C 1008.0 hPa WNW 20.4 km/h 20.4 km/h 54 % 0.0 mm 0.0 W/m2 CLR
01:26 19.6 °C 10.3 °C 1008.0 hPa NNW 22.2 km/h 22.2 km/h 55 % 0.0 mm 0.0 W/m2 CLR
01:31 19.4 °C 10.1 °C 1008.0 hPa WNW 16.7 km/h 16.7 km/h 55 % 0.0 mm 0.0 W/m2 CLR
01:36 19.3 °C 10.0 °C 1008.0 hPa West 20.4 km/h 20.4 km/h 55 % 0.0 mm 0.0 W/m2 CLR
01:41 19.2 °C 10.2 °C 1008.0 hPa WNW 18.5 km/h 18.5 km/h 56 % 0.0 mm 0.0 W/m2 CLR
01:46 19.1 °C 10.1 °C 1008.0 hPa NNW 18.5 km/h 18.5 km/h 56 % 0.0 mm 0.0 W/m2 CLR
01:51 18.9 °C 10.2 °C 1008.0 hPa WNW 18.5 km/h 18.5 km/h 57 % 0.0 mm 0.0 W/m2 CLR
01:56 18.9 °C 10.4 °C 1008.0 hPa WNW 24.1 km/h 24.1 km/h 58 % 0.0 mm 0.0 W/m2 CLR
02:01 18.8 °C 10.6 °C 1008.0 hPa NW 20.4 km/h 20.4 km/h 59 % 0.0 mm 0.0 W/m2 CLR
02:06 18.7 °C 10.8 °C 1008.0 hPa NW 20.4 km/h 20.4 km/h 60 % 0.0 mm 0.0 W/m2 CLR
02:11 18.6 °C 10.7 °C 1008.0 hPa NW 18.5 km/h 18.5 km/h 60 % 0.0 mm 0.0 W/m2 CLR
02:16 18.5 °C 10.6 °C 1008.0 hPa WNW 17.7 km/h 17.7 km/h 60 % 0.0 mm 0.0 W/m2 CLR
02:21 18.4 °C 10.5 °C 1008.0 hPa NNW 22.2 km/h 22.2 km/h 60 % 0.0 mm 0.0 W/m2 CLR
02:26 18.3 °C 10.4 °C 1008.0 hPa WNW 18.5 km/h 18.5 km/h 60 % 0.0 mm 0.0 W/m2 CLR
02:31 18.2 °C 10.6 °C 1008.4 hPa WNW 18.5 km/h 18.5 km/h 61 % 0.0 mm 0.0 W/m2 CLR
02:36 18.1 °C 10.4 °C 1008.4 hPa WNW 14.8 km/h 14.8 km/h 61 % 0.0 mm 0.0 W/m2 CLR
02:41 18.0 °C 10.4 °C 1008.4 hPa WNW 16.7 km/h 16.7 km/h 61 % 0.0 mm 0.0 W/m2 CLR
02:46 17.9 °C 10.3 °C 1008.4 hPa WNW 14.8 km/h 14.8 km/h 61 % 0.0 mm 0.0 W/m2 CLR
02:51 17.8 °C 10.4 °C 1008.4 hPa WNW 18.5 km/h 18.5 km/h 62 % 0.0 mm 0.0 W/m2 CLR
02:56 17.8 °C 10.4 °C 1008.4 hPa West 13.0 km/h 13.0 km/h 62 % 0.0 mm 0.0 W/m2 CLR
03:01 17.7 °C 10.1 °C 1008.4 hPa WSW 11.1 km/h 11.1 km/h 61 % 0.0 mm 0.0 W/m2 CLR
03:06 17.6 °C 10.2 °C 1008.4 hPa West 16.7 km/h 16.7 km/h 62 % 0.0 mm 0.0 W/m2 CLR
03:11 17.6 °C 9.9 °C 1008.4 hPa WNW 18.5 km/h 18.5 km/h 61 % 0.0 mm 0.0 W/m2 CLR
03:16 17.4 °C 10.1 °C 1008.4 hPa WNW 16.7 km/h 16.7 km/h 62 % 0.0 mm 0.0 W/m2 CLR
03:21 17.4 °C 10.1 °C 1008.4 hPa WNW 14.8 km/h 14.8 km/h 62 % 0.0 mm 0.0 W/m2 CLR
03:26 17.4 °C 10.1 °C 1008.4 hPa West 18.5 km/h 18.5 km/h 62 % 0.0 mm 0.0 W/m2 CLR
03:31 17.4 °C 10.3 °C 1008.4 hPa West 16.7 km/h 16.7 km/h 63 % 0.0 mm 0.0 W/m2 CLR
03:36 17.3 °C 10.2 °C 1008.4 hPa West 7.4 km/h 7.4 km/h 63 % 0.0 mm 0.0 W/m2 CLR
03:41 17.2 °C 10.1 °C 1008.7 hPa West 7.4 km/h 7.4 km/h 63 % 0.0 mm 0.0 W/m2 CLR
03:43 17.2 °C 10.1 °C 1008.7 hPa West 16.7 km/h 16.7 km/h 63 % 0.0 mm 0.0 W/m2 CLR
03:48 17.1 °C 10.2 °C 1008.7 hPa West 11.1 km/h 11.1 km/h 64 % 0.0 mm 0.0 W/m2 CLR
03:53 17.0 °C 10.1 °C 1008.7 hPa West 16.7 km/h 16.7 km/h 64 % 0.0 mm 0.0 W/m2 CLR
03:58 16.9 °C 10.3 °C 1008.4 hPa West 16.7 km/h 16.7 km/h 65 % 0.0 mm 0.0 W/m2 CLR
04:03 16.8 °C 10.2 °C 1008.7 hPa West 20.4 km/h 20.4 km/h 65 % 0.0 mm 0.0 W/m2 CLR
04:08 16.7 °C 10.1 °C 1008.7 hPa WNW 16.7 km/h 16.7 km/h 65 % 0.0 mm 0.0 W/m2 CLR
04:13 16.7 °C 10.3 °C 1008.7 hPa WNW 18.5 km/h 18.5 km/h 66 % 0.0 mm 0.0 W/m2 CLR
04:18 16.6 °C 10.2 °C 1008.7 hPa West 14.8 km/h 14.8 km/h 66 % 0.0 mm 0.0 W/m2 CLR
04:23 16.5 °C 10.1 °C 1008.7 hPa West 18.5 km/h 18.5 km/h 66 % 0.0 mm 0.0 W/m2 CLR
04:28 16.4 °C 10.3 °C 1008.7 hPa West 18.5 km/h 18.5 km/h 67 % 0.0 mm 0.0 W/m2 CLR
04:33 16.4 °C 10.2 °C 1008.7 hPa West 18.5 km/h 18.5 km/h 67 % 0.0 mm 0.0 W/m2 CLR
04:38 16.4 °C 10.2 °C 1008.4 hPa West 16.7 km/h 16.7 km/h 67 % 0.0 mm 0.0 W/m2 CLR
04:43 16.4 °C 10.4 °C 1008.7 hPa WNW 18.5 km/h 18.5 km/h 68 % 0.0 mm 0.0 W/m2 CLR
04:48 16.3 °C 10.3 °C 1008.7 hPa WNW 16.7 km/h 16.7 km/h 68 % 0.0 mm 0.0 W/m2 CLR
04:53 16.2 °C 10.3 °C 1008.7 hPa WNW 16.7 km/h 16.7 km/h 68 % 0.0 mm 0.0 W/m2 CLR
04:58 16.2 °C 10.3 °C 1008.7 hPa WNW 14.8 km/h 14.8 km/h 68 % 0.0 mm 0.0 W/m2 CLR
05:03 16.2 °C 10.3 °C 1008.7 hPa WNW 14.8 km/h 14.8 km/h 68 % 0.0 mm 0.0 W/m2 CLR
05:08 16.1 °C 10.4 °C 1008.7 hPa West 14.8 km/h 14.8 km/h 69 % 0.0 mm 0.0 W/m2 CLR
05:13 16.1 °C 10.4 °C 1008.7 hPa WNW 14.8 km/h 14.8 km/h 69 % 0.0 mm 0.0 W/m2 CLR
05:14 16.1 °C 10.4 °C 1008.7 hPa West 16.7 km/h 16.7 km/h 69 % 0.0 mm 0.0 W/m2 CLR
05:19 16.0 °C 10.3 °C 1008.7 hPa NW 20.4 km/h 20.4 km/h 69 % 0.0 mm 0.0 W/m2 CLR
05:24 15.9 °C 10.2 °C 1009.0 hPa West 18.5 km/h 18.5 km/h 69 % 0.0 mm 0.0 W/m2 CLR
05:29 15.8 °C 10.2 °C 1009.0 hPa NW 14.8 km/h 14.8 km/h 69 % 0.0 mm 0.0 W/m2 CLR
05:34 15.8 °C 10.1 °C 1009.0 hPa NW 9.3 km/h 9.3 km/h 69 % 0.0 mm 0.0 W/m2 CLR
05:39 15.7 °C 10.1 °C 1009.0 hPa WNW 11.1 km/h 11.1 km/h 69 % 0.0 mm 0.0 W/m2 CLR
05:44 15.6 °C 9.9 °C 1009.0 hPa West 9.3 km/h 9.3 km/h 69 % 0.0 mm 0.0 W/m2 CLR
05:49 15.6 °C 10.2 °C 1009.0 hPa West 9.3 km/h 9.3 km/h 70 % 0.0 mm 0.0 W/m2 CLR
05:54 15.6 °C 10.2 °C 1009.4 hPa WNW 14.8 km/h 14.8 km/h 70 % 0.0 mm 0.0 W/m2 CLR
05:59 15.7 °C 10.5 °C 1009.4 hPa West 16.1 km/h 16.1 km/h 71 % 0.0 mm 0.0 W/m2 CLR
06:04 15.8 °C 10.6 °C 1009.4 hPa West 18.5 km/h 18.5 km/h 71 % 0.0 mm 0.0 W/m2 CLR
06:09 15.8 °C 10.3 °C 1009.4 hPa WNW 18.5 km/h 18.5 km/h 70 % 0.0 mm 0.0 W/m2 CLR
06:14 15.8 °C 10.3 °C 1009.4 hPa West 14.8 km/h 14.8 km/h 70 % 0.0 mm 0.0 W/m2 CLR
06:19 15.7 °C 10.2 °C 1009.4 hPa West 18.5 km/h 18.5 km/h 70 % 0.0 mm 0.0 W/m2 CLR
06:24 15.6 °C 10.2 °C 1009.4 hPa West 14.8 km/h 14.8 km/h 70 % 0.0 mm 0.0 W/m2 OVC
06:29 15.5 °C 10.3 °C 1009.4 hPa WNW 13.0 km/h 13.0 km/h 71 % 0.0 mm 0.0 W/m2 OVC
06:34 15.4 °C 10.2 °C 1009.4 hPa West 13.0 km/h 13.0 km/h 71 % 0.0 mm 5.0 W/m2 OVC
06:39 15.4 °C 10.2 °C 1009.4 hPa West 16.7 km/h 16.7 km/h 71 % 0.0 mm 9.0 W/m2 BKN
06:44 15.3 °C 10.1 °C 1009.4 hPa WSW 16.7 km/h 16.7 km/h 71 % 0.0 mm 12.0 W/m2 BKN
06:49 15.3 °C 10.1 °C 1009.4 hPa West 18.5 km/h 18.5 km/h 71 % 0.0 mm 21.0 W/m2 BKN
06:54 15.4 °C 10.2 °C 1009.4 hPa West 19.3 km/h 19.3 km/h 71 % 0.0 mm 28.0 W/m2 BKN
06:59 15.5 °C 10.3 °C 1009.4 hPa West 18.5 km/h 18.5 km/h 71 % 0.0 mm 28.0 W/m2 BKN
07:04 15.6 °C 10.1 °C 1009.4 hPa WNW 18.5 km/h 18.5 km/h 70 % 0.0 mm 23.0 W/m2 BKN
07:09 15.6 °C 10.1 °C 1009.7 hPa West 20.9 km/h 20.9 km/h 70 % 0.0 mm 26.0 W/m2 BKN
07:14 15.6 °C 10.1 °C 1009.7 hPa WNW 20.4 km/h 20.4 km/h 70 % 0.0 mm 42.0 W/m2 BKN
07:19 15.6 °C 9.9 °C 1009.7 hPa WNW 20.4 km/h 20.4 km/h 69 % 0.0 mm 53.0 W/m2 SCT
07:24 15.7 °C 10.1 °C 1009.7 hPa West 20.4 km/h 20.4 km/h 69 % 0.0 mm 65.0 W/m2 SCT
07:29 15.8 °C 9.9 °C 1009.7 hPa West 20.4 km/h 20.4 km/h 68 % 0.0 mm 77.0 W/m2 FEW
07:34 15.8 °C 9.9 °C 1009.7 hPa WNW 27.4 km/h 27.4 km/h 68 % 0.0 mm 91.0 W/m2 FEW
07:39 16.0 °C 9.9 °C 1009.4 hPa WNW 22.2 km/h 22.2 km/h 67 % 0.0 mm 105.0 W/m2 CLR
07:44 16.1 °C 9.9 °C 1009.4 hPa WNW 20.4 km/h 20.4 km/h 67 % 0.0 mm 123.0 W/m2 CLR
07:49 16.1 °C 9.8 °C 1009.4 hPa WNW 29.0 km/h 29.0 km/h 66 % 0.0 mm 139.0 W/m2 CLR
07:54 16.2 °C 9.8 °C 1009.4 hPa NW 20.9 km/h 20.9 km/h 66 % 0.0 mm 155.0 W/m2 CLR
07:59 16.3 °C 9.5 °C 1009.4 hPa NW 27.8 km/h 27.8 km/h 64 % 0.0 mm 172.0 W/m2 CLR
08:04 16.3 °C 9.5 °C 1009.4 hPa WNW 29.6 km/h 29.6 km/h 64 % 0.0 mm 188.0 W/m2 CLR
08:09 16.4 °C 9.4 °C 1009.4 hPa WNW 31.5 km/h 31.5 km/h 63 % 0.0 mm 209.0 W/m2 CLR
08:14 16.6 °C 9.2 °C 1009.4 hPa NW 29.0 km/h 29.0 km/h 62 % 0.0 mm 225.0 W/m2 CLR
08:19 16.7 °C 9.1 °C 1009.7 hPa NW 27.8 km/h 27.8 km/h 61 % 0.0 mm 241.0 W/m2 CLR
08:24 16.9 °C 9.1 °C 1009.7 hPa WNW 31.5 km/h 31.5 km/h 60 % 0.0 mm 255.0 W/m2 CLR
08:29 16.9 °C 9.1 °C 1009.7 hPa WNW 33.3 km/h 33.3 km/h 60 % 0.0 mm 271.0 W/m2 CLR
08:34 16.9 °C 9.1 °C 1009.7 hPa WNW 20.4 km/h 20.4 km/h 60 % 0.0 mm 287.0 W/m2 CLR
08:39 17.2 °C 9.1 °C 1009.7 hPa WNW 24.1 km/h 24.1 km/h 59 % 0.0 mm 301.0 W/m2 CLR
08:44 17.3 °C 9.0 °C 1009.7 hPa NW 25.9 km/h 25.9 km/h 58 % 0.0 mm 316.0 W/m2 CLR
08:49 17.4 °C 8.8 °C 1010.0 hPa NNW 31.5 km/h 31.5 km/h 57 % 0.0 mm 334.0 W/m2 CLR
08:54 17.5 °C 8.6 °C 1009.7 hPa WNW 27.8 km/h 27.8 km/h 56 % 0.0 mm 345.0 W/m2 CLR
08:59 17.6 °C 8.7 °C 1009.7 hPa NW 31.5 km/h 31.5 km/h 56 % 0.0 mm 362.0 W/m2 CLR
09:04 17.5 °C 8.3 °C 1009.7 hPa WNW 31.5 km/h 31.5 km/h 55 % 0.0 mm 380.0 W/m2 CLR
09:09 17.8 °C 8.9 °C 1010.0 hPa NW 18.5 km/h 18.5 km/h 56 % 0.0 mm 394.0 W/m2 CLR
09:14 18.1 °C 8.6 °C 1009.7 hPa NW 25.9 km/h 25.9 km/h 54 % 0.0 mm 413.0 W/m2 CLR
09:19 18.0 °C 8.6 °C 1009.7 hPa WNW 24.1 km/h 24.1 km/h 54 % 0.0 mm 427.0 W/m2 CLR
09:24 18.0 °C 8.6 °C 1009.7 hPa NW 24.1 km/h 24.1 km/h 54 % 0.0 mm 443.0 W/m2 CLR
09:29 18.1 °C 8.7 °C 1009.7 hPa WNW 29.6 km/h 29.6 km/h 54 % 0.0 mm 455.0 W/m2 CLR
09:34 18.1 °C 8.4 °C 1009.7 hPa WNW 27.8 km/h 27.8 km/h 53 % 0.0 mm 471.0 W/m2 CLR
09:39 18.2 °C 8.4 °C 1009.7 hPa WNW 20.4 km/h 20.4 km/h 53 % 0.0 mm 490.0 W/m2 CLR
09:44 18.4 °C 8.4 °C 1009.7 hPa NW 22.2 km/h 22.2 km/h 52 % 0.0 mm 504.0 W/m2 CLR
09:49 18.4 °C 8.7 °C 1009.7 hPa WNW 18.5 km/h 18.5 km/h 53 % 0.0 mm 519.0 W/m2 CLR
09:54 18.5 °C 8.4 °C 1009.7 hPa NNW 25.9 km/h 25.9 km/h 52 % 0.0 mm 533.0 W/m2 CLR
09:59 18.7 °C 8.9 °C 1009.7 hPa NW 29.6 km/h 29.6 km/h 53 % 0.0 mm 550.0 W/m2 CLR
10:04 18.8 °C 8.8 °C 1009.7 hPa WNW 18.5 km/h 18.5 km/h 52 % 0.0 mm 563.0 W/m2 CLR
10:09 18.9 °C 8.0 °C 1009.7 hPa NNW 31.5 km/h 31.5 km/h 49 % 0.0 mm 578.0 W/m2 CLR
10:14 18.8 °C 8.2 °C 1009.7 hPa NNW 29.6 km/h 29.6 km/h 50 % 0.0 mm 592.0 W/m2 CLR
10:20 18.9 °C 8.6 °C 1009.7 hPa NNW 19.3 km/h 19.3 km/h 51 % 0.0 mm 610.0 W/m2 CLR
10:25 19.2 °C 8.5 °C 1009.7 hPa WNW 31.5 km/h 31.5 km/h 50 % 0.0 mm 638.0 W/m2 CLR
10:30 19.1 °C 8.4 °C 1009.7 hPa NW 30.6 km/h 30.6 km/h 50 % 0.0 mm 649.0 W/m2 CLR
10:35 19.3 °C 8.3 °C 1009.7 hPa NW 25.9 km/h 25.9 km/h 49 % 0.0 mm 663.0 W/m2 CLR
10:40 19.4 °C 8.4 °C 1009.4 hPa North 20.9 km/h 20.9 km/h 49 % 0.0 mm 686.0 W/m2 CLR
10:45 19.5 °C 8.5 °C 1009.4 hPa NW 20.4 km/h 20.4 km/h 49 % 0.0 mm 684.0 W/m2 CLR
10:50 19.6 °C 8.6 °C 1009.7 hPa WNW 20.4 km/h 20.4 km/h 49 % 0.0 mm 738.0 W/m2 CLR
10:55 19.7 °C 8.3 °C 1009.7 hPa NNW 24.1 km/h 24.1 km/h 48 % 0.0 mm 786.0 W/m2 CLR
11:00 19.6 °C 8.3 °C 1009.4 hPa West 27.8 km/h 27.8 km/h 48 % 0.0 mm 809.0 W/m2 CLR
11:05 19.6 °C 8.6 °C 1009.7 hPa NW 29.0 km/h 29.0 km/h 49 % 0.0 mm 134.0 W/m2 CLR
11:10 19.6 °C 8.6 °C 1009.7 hPa NW 16.7 km/h 17.2 km/h 49 % 0.0 mm 809.0 W/m2 CLR
11:15 19.9 °C 8.6 °C 1009.7 hPa NW 22.2 km/h 22.2 km/h 48 % 0.0 mm 250.0 W/m2 CLR
11:20 19.9 °C 8.6 °C 1009.7 hPa NW 24.1 km/h 24.1 km/h 48 % 0.0 mm 842.0 W/m2 CLR
11:25 20.3 °C 8.3 °C 1009.7 hPa NNW 25.7 km/h 25.7 km/h 46 % 0.0 mm 921.0 W/m2 CLR
11:30 20.2 °C 7.9 °C 1009.7 hPa NNW 27.8 km/h 27.8 km/h 45 % 0.0 mm 185.0 W/m2 CLR
11:35 19.9 °C 7.9 °C 1009.7 hPa WNW 27.8 km/h 27.8 km/h 46 % 0.0 mm 202.0 W/m2 CLR
11:40 20.3 °C 8.3 °C 1009.7 hPa NNW 31.5 km/h 31.5 km/h 46 % 0.0 mm 359.0 W/m2 CLR
11:45 20.3 °C 8.3 °C 1009.7 hPa NW 25.9 km/h 25.9 km/h 46 % 0.0 mm 232.0 W/m2 CLR
11:50 20.1 °C 8.1 °C 1009.7 hPa NW 20.4 km/h 20.4 km/h 46 % 0.0 mm 962.0 W/m2 CLR
11:55 20.6 °C 7.2 °C 1009.7 hPa WNW 31.5 km/h 31.5 km/h 42 % 0.0 mm 1011.0 W/m2 CLR
12:00 20.8 °C 7.8 °C 1009.7 hPa WNW 24.1 km/h 24.1 km/h 43 % 0.0 mm 963.0 W/m2 CLR
12:05 21.1 °C 7.3 °C 1009.7 hPa NNW 33.3 km/h 33.3 km/h 41 % 0.0 mm 1005.0 W/m2 CLR
12:10 21.2 °C 6.7 °C 1009.4 hPa WNW 31.5 km/h 31.5 km/h 39 % 0.0 mm 1049.0 W/m2 CLR
12:15 21.5 °C 6.9 °C 1009.7 hPa WNW 38.9 km/h 38.9 km/h 39 % 0.0 mm 986.0 W/m2 CLR
12:20 21.4 °C 6.5 °C 1009.4 hPa West 27.4 km/h 27.8 km/h 38 % 0.0 mm 953.0 W/m2 CLR
12:25 21.7 °C 6.4 °C 1009.7 hPa West 31.5 km/h 31.5 km/h 37 % 0.0 mm 1004.0 W/m2 CLR
12:30 21.7 °C 6.3 °C 1009.7 hPa NW 40.7 km/h 40.7 km/h 37 % 0.0 mm 1004.0 W/m2 CLR
12:35 21.8 °C 6.5 °C 1009.7 hPa WNW 33.8 km/h 33.8 km/h 37 % 0.0 mm 1023.0 W/m2 CLR
12:40 22.1 °C 5.9 °C 1009.7 hPa WNW 40.2 km/h 40.2 km/h 35 % 0.0 mm 1032.0 W/m2 CLR
12:45 22.1 °C 5.9 °C 1009.7 hPa West 29.6 km/h 29.6 km/h 35 % 0.0 mm 1137.0 W/m2 CLR
12:50 21.9 °C 5.3 °C 1009.7 hPa West 37.0 km/h 37.0 km/h 34 % 0.0 mm 200.0 W/m2 CLR
12:55 21.9 °C 5.7 °C 1009.7 hPa WNW 20.4 km/h 21.6 km/h 35 % 0.0 mm 1042.0 W/m2 CLR
13:00 22.6 °C 5.5 °C 1009.7 hPa West 25.9 km/h 28.0 km/h 33 % 0.0 mm 1118.0 W/m2 CLR
13:05 23.0 °C 5.4 °C 1009.7 hPa NNW 38.9 km/h 38.9 km/h 32 % 0.0 mm 1056.0 W/m2 CLR
13:10 22.6 °C 4.6 °C 1009.4 hPa West 46.3 km/h 46.3 km/h 31 % 0.0 mm 1055.0 W/m2 CLR
13:15 22.8 °C 5.7 °C 1009.7 hPa West 31.5 km/h 31.5 km/h 33 % 0.0 mm 1044.0 W/m2 CLR
13:20 22.7 °C 5.1 °C 1009.4 hPa West 40.7 km/h 40.7 km/h 32 % 0.0 mm 1046.0 W/m2 CLR
13:25 22.9 °C 4.9 °C 1009.7 hPa NW 44.4 km/h 44.4 km/h 31 % 0.0 mm 991.0 W/m2 CLR
13:30 23.1 °C 4.6 °C 1009.7 hPa NW 42.6 km/h 42.6 km/h 30 % 0.0 mm 990.0 W/m2 CLR
13:35 23.1 °C 4.6 °C 1009.7 hPa WNW 42.6 km/h 42.6 km/h 30 % 0.0 mm 988.0 W/m2 CLR
13:40 23.0 °C 4.5 °C 1009.7 hPa NW 46.3 km/h 46.3 km/h 30 % 0.0 mm 998.0 W/m2 CLR
13:45 23.1 °C 4.6 °C 1009.7 hPa WNW 42.6 km/h 42.6 km/h 30 % 0.0 mm 1009.0 W/m2 CLR
13:50 22.8 °C 4.8 °C 1009.7 hPa West 33.3 km/h 33.3 km/h 31 % 0.0 mm 988.0 W/m2 CLR
13:55 22.9 °C 4.8 °C 1009.7 hPa WNW 40.7 km/h 40.7 km/h 31 % 0.0 mm 1053.0 W/m2 CLR
14:00 23.0 °C 4.9 °C 1009.4 hPa NW 32.2 km/h 32.2 km/h 31 % 0.0 mm 1005.0 W/m2 CLR
14:05 23.3 °C 4.8 °C 1009.4 hPa West 40.7 km/h 40.7 km/h 30 % 0.0 mm 1007.0 W/m2 CLR
14:10 23.4 °C 4.9 °C 1009.4 hPa NNW 37.0 km/h 37.0 km/h 30 % 0.0 mm 1025.0 W/m2 CLR
14:11 23.4 °C 4.9 °C 1009.4 hPa North 37.0 km/h 37.0 km/h 30 % 0.0 mm 1030.0 W/m2 CLR
14:16 23.9 °C 4.8 °C 1009.4 hPa West 25.9 km/h 25.9 km/h 29 % 0.0 mm 1048.0 W/m2 CLR
14:21 23.7 °C 4.6 °C 1009.4 hPa NW 40.7 km/h 40.7 km/h 29 % 0.0 mm 1055.0 W/m2 CLR
14:26 23.7 °C 4.6 °C 1009.4 hPa NNW 35.4 km/h 35.4 km/h 29 % 0.0 mm 1062.0 W/m2 CLR
14:31 23.6 °C 4.5 °C 1009.4 hPa WNW 37.0 km/h 37.0 km/h 29 % 0.0 mm 1116.0 W/m2 CLR
14:36 23.0 °C 4.9 °C 1009.4 hPa WNW 40.7 km/h 40.7 km/h 31 % 0.0 mm 1148.0 W/m2 CLR
14:41 22.9 °C 4.9 °C 1009.4 hPa WNW 29.6 km/h 29.6 km/h 31 % 0.0 mm 269.0 W/m2 CLR
14:46 22.6 °C 4.6 °C 1009.4 hPa WNW 22.2 km/h 22.2 km/h 31 % 0.0 mm 374.0 W/m2 CLR
14:51 23.0 °C 4.9 °C 1009.0 hPa NNW 46.3 km/h 46.3 km/h 31 % 0.0 mm 1162.0 W/m2 CLR
14:56 23.4 °C 4.3 °C 1009.0 hPa NW 31.5 km/h 31.5 km/h 29 % 0.0 mm 381.0 W/m2 CLR
15:01 23.1 °C 5.1 °C 1009.0 hPa WNW 31.5 km/h 31.5 km/h 31 % 0.0 mm 234.0 W/m2 CLR
15:06 23.3 °C 4.8 °C 1008.7 hPa WNW 29.6 km/h 29.6 km/h 30 % 0.0 mm 1078.0 W/m2 CLR
15:11 24.1 °C 4.9 °C 1008.7 hPa NW 27.8 km/h 27.8 km/h 29 % 0.0 mm 1004.0 W/m2 CLR
15:16 24.3 °C 5.1 °C 1008.7 hPa NNW 29.6 km/h 29.6 km/h 29 % 0.0 mm 969.0 W/m2 CLR
15:21 24.4 °C 4.7 °C 1008.7 hPa NW 37.0 km/h 37.0 km/h 28 % 0.0 mm 944.0 W/m2 CLR
15:26 24.5 °C 4.8 °C 1009.0 hPa WNW 37.0 km/h 37.0 km/h 28 % 0.0 mm 930.0 W/m2 CLR
15:31 24.4 °C 5.2 °C 1008.7 hPa West 29.6 km/h 29.6 km/h 29 % 0.0 mm 940.0 W/m2 CLR
15:36 24.2 °C 5.0 °C 1008.7 hPa NW 31.5 km/h 31.5 km/h 29 % 0.0 mm 916.0 W/m2 CLR
15:41 24.5 °C 4.8 °C 1008.7 hPa NNW 29.6 km/h 29.6 km/h 28 % 0.0 mm 940.0 W/m2 CLR
15:46 24.8 °C 5.0 °C 1008.7 hPa NW 27.8 km/h 27.8 km/h 28 % 0.0 mm 940.0 W/m2 CLR
15:51 24.5 °C 4.8 °C 1008.4 hPa NW 27.8 km/h 27.8 km/h 28 % 0.0 mm 939.0 W/m2 CLR
15:56 24.6 °C 4.9 °C 1008.4 hPa NW 37.0 km/h 37.0 km/h 28 % 0.0 mm 895.0 W/m2 CLR
16:01 24.7 °C 4.9 °C 1008.4 hPa NNW 22.2 km/h 22.2 km/h 28 % 0.0 mm 893.0 W/m2 CLR
16:06 25.1 °C 4.7 °C 1008.4 hPa NW 27.8 km/h 27.8 km/h 27 % 0.0 mm 875.0 W/m2 CLR
16:11 24.9 °C 5.1 °C 1008.4 hPa NW 29.6 km/h 29.6 km/h 28 % 0.0 mm 884.0 W/m2 CLR
16:16 24.5 °C 4.3 °C 1008.4 hPa West 24.1 km/h 24.1 km/h 27 % 0.0 mm 984.0 W/m2 CLR
16:21 24.4 °C 4.7 °C 1008.4 hPa NW 35.2 km/h 35.2 km/h 28 % 0.0 mm 953.0 W/m2 CLR
16:26 24.7 °C 4.4 °C 1008.0 hPa NW 18.5 km/h 18.5 km/h 27 % 0.0 mm 898.0 W/m2 CLR
16:31 24.9 °C 4.6 °C 1008.0 hPa North 44.4 km/h 44.4 km/h 27 % 0.0 mm 856.0 W/m2 CLR
16:36 25.1 °C 4.2 °C 1008.0 hPa WNW 29.6 km/h 29.6 km/h 26 % 0.0 mm 846.0 W/m2 CLR
16:41 24.6 °C 3.8 °C 1008.0 hPa NW 27.8 km/h 27.8 km/h 26 % 0.0 mm 141.0 W/m2 CLR
16:46 24.5 °C 4.3 °C 1008.0 hPa NNW 27.4 km/h 27.4 km/h 27 % 0.0 mm 185.0 W/m2 CLR
16:51 24.2 °C 4.0 °C 1008.0 hPa WNW 27.8 km/h 27.8 km/h 27 % 0.0 mm 178.0 W/m2 CLR
16:56 24.7 °C 4.4 °C 1007.7 hPa NW 31.5 km/h 31.5 km/h 27 % 0.0 mm 886.0 W/m2 CLR
17:01 25.2 °C 4.3 °C 1007.7 hPa North 22.2 km/h 22.2 km/h 26 % 0.0 mm 840.0 W/m2 CLR
17:02 25.3 °C 4.4 °C 1007.7 hPa North 22.2 km/h 22.2 km/h 26 % 0.0 mm 840.0 W/m2 CLR
17:07 25.5 °C 4.0 °C 1007.7 hPa North 24.1 km/h 24.1 km/h 25 % 0.0 mm 803.0 W/m2 CLR
17:12 25.7 °C 4.7 °C 1007.7 hPa WNW 25.9 km/h 25.9 km/h 26 % 0.0 mm 803.0 W/m2 CLR
17:17 24.9 °C 3.5 °C 1007.7 hPa WNW 29.6 km/h 29.6 km/h 25 % 0.0 mm 156.0 W/m2 CLR
17:22 24.2 °C 3.5 °C 1007.7 hPa NW 29.6 km/h 29.6 km/h 26 % 0.0 mm 160.0 W/m2 CLR
21:03 23.3 °C 2.7 °C 1008.4 hPa North 25.7 km/h 25.7 km/h 26 % 0.0 mm 26.0 W/m2 BKN
21:08 23.1 °C 2.6 °C 1008.4 hPa North 20.4 km/h 20.4 km/h 26 % 0.0 mm 21.0 W/m2 BKN
21:13 22.9 °C 2.3 °C 1008.4 hPa North 13.0 km/h 13.0 km/h 26 % 0.0 mm 16.0 W/m2 BKN
21:18 22.7 °C 2.2 °C 1008.4 hPa NE 16.1 km/h 16.1 km/h 26 % 0.0 mm 14.0 W/m2 BKN
21:23 22.6 °C 2.7 °C 1008.4 hPa North 18.5 km/h 18.5 km/h 27 % 0.0 mm 11.0 W/m2 BKN
21:28 22.5 °C 2.6 °C 1008.7 hPa NNW 13.0 km/h 13.0 km/h 27 % 0.0 mm 5.0 W/m2 OVC
21:33 22.4 °C 2.4 °C 1008.7 hPa NNW 3.7 km/h 3.7 km/h 27 % 0.0 mm 0.0 W/m2 OVC
21:38 22.3 °C 2.4 °C 1008.7 hPa Calm     27 % 0.0 mm 0.0 W/m2 OVC
21:39 22.3 °C 2.4 °C 1008.7 hPa Calm     27 % 0.0 mm 0.0 W/m2 OVC
21:44 22.2 °C 2.8 °C 1008.7 hPa Calm     28 % 0.0 mm 0.0 W/m2 OVC
21:49 22.1 °C 2.7 °C 1008.7 hPa Calm     28 % 0.0 mm 0.0 W/m2 CLR
21:54 22.1 °C 2.7 °C 1008.7 hPa Calm     28 % 0.0 mm 0.0 W/m2 CLR
21:59 21.9 °C 2.6 °C 1009.0 hPa Calm     28 % 0.0 mm 0.0 W/m2 CLR
22:04 21.8 °C 3.0 °C 1009.0 hPa Calm     29 % 0.0 mm 0.0 W/m2 CLR
22:09 21.7 °C 3.4 °C 1009.0 hPa Calm     30 % 0.0 mm 0.0 W/m2 CLR
22:14 21.4 °C 3.1 °C 1009.0 hPa Calm     30 % 0.0 mm 0.0 W/m2 CLR
22:19 21.3 °C 3.1 °C 1009.4 hPa Calm     30 % 0.0 mm 0.0 W/m2 CLR
22:24 21.2 °C 2.9 °C 1009.4 hPa Calm     30 % 0.0 mm 0.0 W/m2 CLR
22:29 21.2 °C 3.3 °C 1009.4 hPa Calm     31 % 0.0 mm 0.0 W/m2 CLR
22:34 21.2 °C 3.3 °C 1009.4 hPa Calm     31 % 0.0 mm 0.0 W/m2 CLR
22:39 21.1 °C 3.8 °C 1009.4 hPa Calm     32 % 0.0 mm 0.0 W/m2 CLR
22:49 21.0 °C 3.2 °C 1009.7 hPa Calm     31 % 0.0 mm 0.0 W/m2 CLR
22:54 21.0 °C 3.2 °C 1009.7 hPa Calm     31 % 0.0 mm 0.0 W/m2 CLR
22:59 21.0 °C 3.2 °C 1009.7 hPa Calm     31 % 0.0 mm 0.0 W/m2 CLR
23:04 21.1 °C 3.3 °C 1010.0 hPa Calm     31 % 0.0 mm 0.0 W/m2 CLR
23:09 20.9 °C 3.6 °C 1010.0 hPa Calm     32 % 0.0 mm 0.0 W/m2 CLR
23:14 20.8 °C 3.4 °C 1010.0 hPa Calm     32 % 0.0 mm 0.0 W/m2 CLR
23:19 20.6 °C 3.7 °C 1010.0 hPa Calm     33 % 0.0 mm 0.0 W/m2 CLR
23:24 20.4 °C 3.6 °C 1010.0 hPa NW 5.6 km/h 5.6 km/h 33 % 0.0 mm 0.0 W/m2 CLR
23:29 20.5 °C 3.7 °C 1010.0 hPa NNW 8.0 km/h 8.0 km/h 33 % 0.0 mm 0.0 W/m2 CLR
23:34 20.3 °C 3.9 °C 1010.0 hPa NW 6.4 km/h 6.4 km/h 34 % 0.0 mm 0.0 W/m2 CLR
23:39 19.9 °C 4.0 °C 1010.0 hPa NW 5.6 km/h 5.6 km/h 35 % 0.0 mm 0.0 W/m2 CLR
23:44 19.6 °C 3.7 °C 1010.0 hPa WNW 5.6 km/h 5.6 km/h 35 % 0.0 mm 0.0 W/m2 CLR
23:49 19.4 °C 3.6 °C 1010.0 hPa WNW 5.6 km/h 5.6 km/h 35 % 0.0 mm 0.0 W/m2 CLR
23:54 19.4 °C 3.6 °C 1010.0 hPa WNW 1.9 km/h 1.9 km/h 35 % 0.0 mm 0.0 W/m2 CLR
23:59 19.3 °C 3.5 °C 1010.0 hPa WNW 1.9 km/h 1.9 km/h 35 % 0.0 mm 0.0 W/m2 CLR
Lo Temps de Massalio
Compliments of Weather Underground - 1 mb